createdAt,value
2022-09-27T00:01:42.300Z,15.52
2022-09-27T00:04:12.247Z,15.74
2022-09-27T00:06:41.139Z,15.59
2022-09-27T00:09:10.030Z,15.59
2022-09-27T00:11:40.147Z,15.78
2022-09-27T00:14:09.035Z,15.81
2022-09-27T00:16:38.288Z,13.48
2022-09-27T00:19:09.187Z,14.90
2022-09-27T00:21:37.500Z,14.66
2022-09-27T00:24:05.989Z,15.05
2022-09-27T00:26:34.429Z,14.54
2022-09-27T00:29:02.909Z,14.51
2022-09-27T00:31:31.391Z,15.19
2022-09-27T00:34:01.312Z,15.25
2022-09-27T00:36:30.067Z,15.44
2022-09-27T00:39:00.207Z,15.35
2022-09-27T00:41:33.569Z,15.69
2022-09-27T00:44:06.544Z,15.28
2022-09-27T00:46:34.879Z,15.72
2022-09-27T00:49:18.251Z,15.48
2022-09-27T00:51:48.568Z,15.56
2022-09-27T00:54:17.749Z,15.44
2022-09-27T00:56:46.063Z,15.61
2022-09-27T00:59:20.484Z,15.61
2022-09-27T01:01:49.753Z,15.39
2022-09-27T01:04:22.919Z,15.40
2022-09-27T01:06:51.716Z,15.30
2022-09-27T01:09:21.155Z,15.68
2022-09-27T01:11:58.819Z,15.18
2022-09-27T01:14:36.080Z,14.97
2022-09-27T01:17:19.254Z,14.99
2022-09-27T01:19:47.443Z,14.76
2022-09-27T01:22:22.855Z,14.47
2022-09-27T01:25:23.465Z,14.49
2022-09-27T01:28:06.280Z,14.56
2022-09-27T01:30:39.639Z,14.58
2022-09-27T01:33:23.493Z,14.43
2022-09-27T01:35:52.237Z,14.21
2022-09-27T01:39:00.105Z,13.96
2022-09-27T01:42:01.785Z,14.25
2022-09-27T01:44:39.609Z,13.97
2022-09-27T01:47:18.269Z,13.99
2022-09-27T01:50:17.391Z,13.96
2022-09-27T01:52:54.975Z,13.82
2022-09-27T01:55:27.690Z,13.96
2022-09-27T01:58:29.961Z,14.45
2022-09-27T02:00:58.761Z,14.51
2022-09-27T02:03:36.636Z,14.95
2022-09-27T02:06:46.524Z,14.56
2022-09-27T02:09:31.047Z,14.95
2022-09-27T02:12:25.067Z,15.03
2022-09-27T02:15:04.936Z,15.10
2022-09-27T02:18:34.342Z,14.18
2022-09-27T02:21:04.982Z,13.82
2022-09-27T02:24:03.264Z,14.34
2022-09-27T02:26:35.024Z,14.27
2022-09-27T02:29:16.004Z,14.27
2022-09-27T02:31:50.607Z,13.96
2022-09-27T02:34:23.971Z,14.15
2022-09-27T02:36:53.797Z,13.94
2022-09-27T02:39:22.579Z,13.86
2022-09-27T02:42:00.321Z,13.89
2022-09-27T02:44:28.634Z,14.39
2022-09-27T02:47:05.830Z,14.38
2022-09-27T02:49:40.053Z,13.57
2022-09-27T02:52:49.345Z,13.88
2022-09-27T02:55:21.029Z,13.97
2022-09-27T02:58:05.466Z,13.96
2022-09-27T03:00:50.451Z,13.88
2022-09-27T03:04:09.651Z,13.86
2022-09-27T03:06:40.021Z,14.17
2022-09-27T03:09:23.910Z,14.36
2022-09-27T03:11:52.663Z,13.90
2022-09-27T03:14:21.104Z,14.46
2022-09-27T03:17:02.142Z,14.77
2022-09-27T03:19:56.430Z,15.09
2022-09-27T03:22:47.601Z,14.74
2022-09-27T03:25:16.257Z,15.02
2022-09-27T03:27:44.895Z,15.01
2022-09-27T03:30:13.573Z,15.19
2022-09-27T03:32:45.743Z,14.77
2022-09-27T03:35:32.529Z,14.95
2022-09-27T03:38:01.691Z,15.20
2022-09-27T03:40:30.156Z,14.05
2022-09-27T03:42:58.475Z,14.60
2022-09-27T03:45:27.315Z,14.56
2022-09-27T03:47:58.428Z,14.78
2022-09-27T03:50:26.865Z,14.98
2022-09-27T03:52:55.294Z,14.68
2022-09-27T03:55:24.931Z,14.90
2022-09-27T03:57:53.819Z,15.01
2022-09-27T04:00:22.558Z,14.42
2022-09-27T04:02:50.888Z,14.41
2022-09-27T04:05:29.005Z,14.45
2022-09-27T04:08:14.095Z,14.97
2022-09-27T04:10:43.542Z,14.46
2022-09-27T04:13:12.252Z,14.50
2022-09-27T04:15:52.225Z,14.23
2022-09-27T04:18:39.752Z,14.12
2022-09-27T04:21:28.571Z,14.42
2022-09-27T04:23:57.494Z,14.74
2022-09-27T04:26:26.169Z,15.06
2022-09-27T04:29:04.927Z,14.96
2022-09-27T04:31:38.875Z,14.96
2022-09-27T04:34:50.904Z,14.89
2022-09-27T04:37:24.383Z,15.06
2022-09-27T04:40:01.992Z,15.23
2022-09-27T04:42:31.875Z,15.13
2022-09-27T04:45:00.897Z,15.19
2022-09-27T04:47:29.107Z,14.51
2022-09-27T04:49:58.331Z,14.70
2022-09-27T04:52:27.054Z,15.01
2022-09-27T04:54:55.471Z,15.20
2022-09-27T04:57:23.989Z,15.16
2022-09-27T04:59:52.530Z,14.28
2022-09-27T05:02:21.612Z,14.91
2022-09-27T05:05:09.045Z,14.44
2022-09-27T05:07:40.779Z,14.86
2022-09-27T05:10:15.437Z,14.34
2022-09-27T05:12:43.926Z,15.00
2022-09-27T05:15:16.471Z,14.98
2022-09-27T05:18:19.909Z,14.77
2022-09-27T05:21:11.198Z,15.23
2022-09-27T05:23:46.045Z,15.10
2022-09-27T05:26:16.781Z,15.35
2022-09-27T05:28:47.573Z,14.85
2022-09-27T05:31:17.264Z,15.18
2022-09-27T05:33:45.967Z,15.31
2022-09-27T05:36:35.619Z,14.88
2022-09-27T05:39:04.446Z,14.98
2022-09-27T05:41:33.285Z,15.03
2022-09-27T05:44:02.154Z,14.55
2022-09-27T05:46:30.926Z,14.70
2022-09-27T05:49:00.211Z,14.52
2022-09-27T05:51:28.618Z,14.48
2022-09-27T05:53:57.141Z,14.72
2022-09-27T05:56:29.826Z,14.85
2022-09-27T05:59:17.199Z,14.57
2022-09-27T06:02:05.618Z,14.40
2022-09-27T06:04:57.066Z,13.96
2022-09-27T06:07:44.261Z,14.30
2022-09-27T06:10:20.458Z,14.26
2022-09-27T06:12:50.525Z,14.42
2022-09-27T06:15:37.815Z,14.19
2022-09-27T06:18:11.845Z,14.55
2022-09-27T06:20:43.413Z,14.84
2022-09-27T06:23:19.205Z,14.51
2022-09-27T06:25:50.068Z,14.38
2022-09-27T06:28:24.178Z,14.68
2022-09-27T06:30:56.976Z,14.53
2022-09-27T06:33:40.929Z,15.02
2022-09-27T06:36:09.473Z,15.19
2022-09-27T06:38:40.071Z,15.19
2022-09-27T06:41:21.633Z,15.02
2022-09-27T06:44:13.490Z,14.83
2022-09-27T06:47:10.841Z,14.34
2022-09-27T06:49:54.630Z,15.05
2022-09-27T06:52:23.097Z,15.21
2022-09-27T06:54:51.516Z,15.41
2022-09-27T06:57:42.003Z,15.11
2022-09-27T07:00:27.153Z,15.20
2022-09-27T07:03:23.476Z,15.29
2022-09-27T07:06:23.108Z,15.38
2022-09-27T07:08:58.482Z,15.39
2022-09-27T07:11:26.866Z,15.56
2022-09-27T07:13:56.787Z,15.82
2022-09-27T07:16:25.222Z,15.99
2022-09-27T07:18:53.476Z,16.09
2022-09-27T07:21:21.762Z,15.62
2022-09-27T07:23:50.932Z,15.91
2022-09-27T07:26:19.427Z,15.68
2022-09-27T07:28:48.802Z,15.48
2022-09-27T07:31:19.412Z,15.92
2022-09-27T07:33:47.787Z,15.62
2022-09-27T07:36:16.135Z,16.02
2022-09-27T07:38:47.198Z,15.70
2022-09-27T07:41:18.561Z,15.21
2022-09-27T07:43:46.959Z,15.40
2022-09-27T07:46:16.406Z,15.48
2022-09-27T07:48:52.649Z,15.16
2022-09-27T07:51:39.778Z,15.38
2022-09-27T07:54:30.216Z,15.15
2022-09-27T07:57:07.557Z,15.48
2022-09-27T07:59:46.268Z,16.00
2022-09-27T08:02:18.339Z,16.21
2022-09-27T08:04:50.291Z,15.85
2022-09-27T08:07:19.131Z,16.01
2022-09-27T08:09:51.751Z,16.14
2022-09-27T08:12:21.886Z,16.80
2022-09-27T08:14:50.833Z,16.69
2022-09-27T08:17:19.819Z,16.78
2022-09-27T08:20:16.885Z,16.83
2022-09-27T08:23:10.987Z,16.80
2022-09-27T08:25:44.576Z,16.51
2022-09-27T08:28:35.641Z,16.79
2022-09-27T08:31:15.314Z,16.88
2022-09-27T08:33:43.934Z,16.70
2022-09-27T08:36:13.164Z,16.48
2022-09-27T08:38:42.280Z,16.18
2022-09-27T08:41:35.008Z,15.73
2022-09-27T08:44:21.076Z,15.61
2022-09-27T08:47:30.018Z,15.32
2022-09-27T08:50:22.817Z,15.45
2022-09-27T08:52:54.554Z,16.15
2022-09-27T08:55:37.239Z,15.99
2022-09-27T08:58:30.786Z,16.81
2022-09-27T09:01:03.658Z,16.59
2022-09-27T09:03:40.397Z,17.06
2022-09-27T09:06:12.155Z,17.43
2022-09-27T09:09:10.082Z,17.75
2022-09-27T09:12:22.210Z,17.85
2022-09-27T09:15:07.599Z,17.92
2022-09-27T09:18:14.011Z,18.33
2022-09-27T09:21:17.505Z,18.21
2022-09-27T09:24:17.041Z,18.64
2022-09-27T09:27:02.962Z,18.43
2022-09-27T09:29:58.823Z,18.09
2022-09-27T09:32:37.163Z,18.52
2022-09-27T09:35:20.663Z,18.36
2022-09-27T09:37:51.641Z,18.40
2022-09-27T09:40:39.442Z,18.51
2022-09-27T09:43:13.286Z,18.20
2022-09-27T09:45:46.713Z,18.37
2022-09-27T09:48:25.167Z,18.24
2022-09-27T09:50:55.334Z,17.63
2022-09-27T09:53:42.025Z,18.02
2022-09-27T09:56:19.070Z,18.43
2022-09-27T09:59:33.847Z,17.77
2022-09-27T10:02:29.260Z,18.61
2022-09-27T10:05:07.617Z,18.93
2022-09-27T10:07:39.743Z,18.26
2022-09-27T10:10:10.488Z,18.84
2022-09-27T10:12:58.076Z,18.67
2022-09-27T10:15:32.112Z,19.10
2022-09-27T10:18:00.925Z,19.61
2022-09-27T10:20:37.548Z,19.28
2022-09-27T10:23:21.591Z,19.66
2022-09-27T10:26:06.567Z,19.33
2022-09-27T10:28:51.300Z,19.75
2022-09-27T10:31:26.804Z,19.67
2022-09-27T10:34:27.737Z,19.31
2022-09-27T10:37:08.356Z,19.61
2022-09-27T10:39:41.804Z,19.84
2022-09-27T10:42:34.152Z,19.68
2022-09-27T10:45:34.785Z,19.33
2022-09-27T10:48:24.107Z,20.22
2022-09-27T10:51:02.107Z,20.15
2022-09-27T10:53:45.516Z,19.86
2022-09-27T10:56:25.365Z,19.78
2022-09-27T10:58:58.029Z,19.59
2022-09-27T11:01:28.753Z,19.12
2022-09-27T11:04:34.149Z,19.57
2022-09-27T11:07:17.438Z,19.66
2022-09-27T11:10:03.325Z,19.54
2022-09-27T11:12:37.011Z,19.76
2022-09-27T11:15:07.694Z,20.04
2022-09-27T11:18:02.721Z,19.50
2022-09-27T11:20:42.927Z,20.07
2022-09-27T11:23:36.662Z,20.49
2022-09-27T11:26:25.993Z,20.29
2022-09-27T11:29:27.454Z,20.38
2022-09-27T11:32:38.511Z,20.18
2022-09-27T11:35:51.514Z,20.77
2022-09-27T11:38:52.708Z,20.81
2022-09-27T11:41:56.126Z,20.32
2022-09-27T11:45:13.378Z,20.39
2022-09-27T11:47:57.314Z,20.75
2022-09-27T11:50:54.843Z,20.85
2022-09-27T11:53:44.352Z,20.89
2022-09-27T11:56:35.912Z,21.19
2022-09-27T11:59:49.482Z,21.15
2022-09-27T12:02:41.238Z,20.99
2022-09-27T12:05:45.001Z,21.00
2022-09-27T12:08:35.026Z,21.00
2022-09-27T12:11:27.572Z,21.27
2022-09-27T12:14:25.824Z,21.35
2022-09-27T12:16:57.932Z,21.21
2022-09-27T12:19:33.193Z,20.76
2022-09-27T12:22:07.201Z,20.95
2022-09-27T12:24:44.989Z,20.86
2022-09-27T12:28:30.368Z,20.68
2022-09-27T12:31:27.572Z,20.88
2022-09-27T12:34:19.918Z,21.21
2022-09-27T12:37:17.571Z,21.05
2022-09-27T12:40:29.544Z,20.86
2022-09-27T12:43:18.258Z,21.25
2022-09-27T12:46:09.276Z,21.07
2022-09-27T12:49:00.575Z,21.39
2022-09-27T12:52:03.554Z,21.63
2022-09-27T12:54:50.185Z,21.55
2022-09-27T12:57:48.065Z,21.21
2022-09-27T13:00:32.905Z,20.95
2022-09-27T13:03:27.654Z,20.72
2022-09-27T13:06:13.797Z,21.28
2022-09-27T13:08:49.700Z,21.70
2022-09-27T13:11:34.145Z,21.65
2022-09-27T13:14:02.845Z,22.17
2022-09-27T13:16:31.733Z,22.23
2022-09-27T13:19:03.707Z,22.27
2022-09-27T13:21:48.411Z,21.89
2022-09-27T13:24:51.023Z,21.79
2022-09-27T13:27:40.071Z,21.95
2022-09-27T13:30:11.567Z,21.96
2022-09-27T13:33:17.268Z,22.26
2022-09-27T13:36:17.195Z,22.38
2022-09-27T13:39:11.858Z,22.20
2022-09-27T13:42:27.501Z,20.73
2022-09-27T13:45:43.198Z,18.99
2022-09-27T13:48:38.806Z,17.90
2022-09-27T14:00:10.680Z,19.06
2022-09-27T14:03:24.404Z,19.12
2022-09-27T14:05:59.740Z,18.00
2022-09-27T14:08:32.665Z,18.13
2022-09-27T14:11:04.920Z,18.76
2022-09-27T14:13:34.412Z,18.29
2022-09-27T14:16:07.901Z,18.53
2022-09-27T14:18:44.974Z,17.80
2022-09-27T14:21:21.735Z,17.39
2022-09-27T14:24:34.584Z,18.52
2022-09-27T14:27:24.503Z,18.73
2022-09-27T14:30:04.025Z,18.74
2022-09-27T14:32:48.786Z,18.69
2022-09-27T14:35:45.235Z,18.77
2022-09-27T14:38:50.281Z,18.86
2022-09-27T14:41:37.628Z,19.01
2022-09-27T14:44:16.438Z,18.99
2022-09-27T14:46:54.232Z,19.16
2022-09-27T14:49:26.833Z,16.91
2022-09-27T14:53:19.867Z,17.30
2022-09-27T14:55:56.325Z,17.36
2022-09-27T14:58:46.093Z,17.44
2022-09-27T15:01:18.948Z,16.92
2022-09-27T15:03:49.984Z,16.63
2022-09-27T15:06:22.685Z,16.98
2022-09-27T15:08:51.742Z,17.35
2022-09-27T15:11:22.285Z,17.16
2022-09-27T15:13:53.822Z,17.20
2022-09-27T15:16:25.940Z,17.53
2022-09-27T15:19:17.696Z,17.19
2022-09-27T15:21:48.976Z,17.48
2022-09-27T15:24:41.509Z,17.90
2022-09-27T15:27:15.898Z,17.84
2022-09-27T15:29:55.155Z,17.68
2022-09-27T15:32:24.889Z,17.72
2022-09-27T15:34:54.940Z,17.73
2022-09-27T15:37:39.441Z,17.20
2022-09-27T15:40:34.278Z,17.36
2022-09-27T15:43:02.860Z,17.44
2022-09-27T15:45:38.808Z,17.28
2022-09-27T15:48:28.512Z,17.34
2022-09-27T15:50:58.776Z,17.19
2022-09-27T15:53:35.992Z,17.33
2022-09-27T15:56:06.839Z,16.62
2022-09-27T15:58:35.228Z,16.31
2022-09-27T16:01:05.859Z,16.81
2022-09-27T16:03:35.736Z,16.78
2022-09-27T16:06:05.011Z,16.97
2022-09-27T16:08:34.787Z,16.92
2022-09-27T16:11:06.077Z,17.19
2022-09-27T16:13:34.466Z,17.15
2022-09-27T16:16:03.592Z,16.86
2022-09-27T16:18:33.287Z,16.70
2022-09-27T16:21:02.578Z,17.09
2022-09-27T16:23:31.046Z,16.45
2022-09-27T16:25:59.493Z,16.66
2022-09-27T16:28:36.265Z,16.61
2022-09-27T16:31:11.059Z,16.33
2022-09-27T16:33:45.973Z,16.74
2022-09-27T16:36:23.790Z,16.77
2022-09-27T16:39:01.347Z,17.00
2022-09-27T16:41:40.393Z,16.80
2022-09-27T16:44:12.113Z,16.85
2022-09-27T16:46:49.617Z,16.74
2022-09-27T16:49:43.069Z,16.74
2022-09-27T16:52:36.407Z,17.07
2022-09-27T16:55:09.537Z,16.07
2022-09-27T16:57:43.445Z,16.57
2022-09-27T17:00:16.325Z,16.85
2022-09-27T17:02:50.025Z,16.89
2022-09-27T17:05:31.873Z,16.98
2022-09-27T17:08:02.894Z,16.81
2022-09-27T17:10:39.826Z,15.90
2022-09-27T17:13:14.553Z,15.82
2022-09-27T17:15:59.201Z,15.56
2022-09-27T17:18:45.252Z,15.45
2022-09-27T17:21:24.023Z,15.73
2022-09-27T17:24:11.190Z,16.01
2022-09-27T17:26:46.625Z,16.18
2022-09-27T17:29:29.664Z,15.55
2022-09-27T17:32:13.650Z,15.15
2022-09-27T17:34:54.494Z,14.93
2022-09-27T17:37:52.152Z,15.88
2022-09-27T17:40:23.839Z,15.93
2022-09-27T17:42:55.858Z,16.11
2022-09-27T17:45:29.819Z,16.11
2022-09-27T17:48:23.812Z,16.27
2022-09-27T17:51:09.957Z,15.84
2022-09-27T17:53:45.181Z,15.92
2022-09-27T17:59:02.897Z,16.22
2022-09-27T18:01:46.645Z,16.15
2022-09-27T18:04:22.252Z,16.23
2022-09-27T18:06:53.392Z,16.18
2022-09-27T18:09:25.512Z,16.21
2022-09-27T18:11:55.695Z,16.22
2022-09-27T18:14:28.985Z,16.04
2022-09-27T18:17:08.422Z,16.12
2022-09-27T18:19:43.480Z,15.80
2022-09-27T18:22:16.398Z,15.88
2022-09-27T18:24:48.984Z,16.13
2022-09-27T18:27:20.410Z,15.92
2022-09-27T18:29:49.595Z,16.07
2022-09-27T18:35:03.457Z,15.80
2022-09-27T18:37:32.886Z,15.65
2022-09-27T18:40:04.997Z,15.17
2022-09-27T18:42:34.815Z,15.24
2022-09-27T18:45:04.327Z,15.65
2022-09-27T18:47:35.634Z,14.77
2022-09-27T18:50:05.293Z,15.35
2022-09-27T18:52:38.404Z,14.25
2022-09-27T18:55:24.605Z,14.78
2022-09-27T18:57:58.401Z,15.13
2022-09-27T19:00:33.004Z,14.97
2022-09-27T19:03:02.412Z,15.03
2022-09-27T19:05:31.564Z,15.03
2022-09-27T19:08:00.462Z,14.62
2022-09-27T19:10:30.230Z,14.23
2022-09-27T19:12:59.253Z,14.54
2022-09-27T19:15:28.242Z,14.09
2022-09-27T19:17:59.082Z,14.47
2022-09-27T19:20:28.902Z,14.37
2022-09-27T19:22:59.508Z,14.16
2022-09-27T19:25:28.298Z,14.05
2022-09-27T19:27:56.619Z,14.28
2022-09-27T19:30:24.980Z,13.73
2022-09-27T19:32:56.339Z,13.68
2022-09-27T19:35:24.881Z,13.61
2022-09-27T19:37:56.303Z,13.83
2022-09-27T19:40:25.021Z,14.25
2022-09-27T19:42:57.553Z,14.21
2022-09-27T19:45:27.113Z,14.05
2022-09-27T19:48:00.437Z,14.32
2022-09-27T19:50:31.008Z,14.61
2022-09-27T19:53:02.237Z,13.99
2022-09-27T19:55:31.446Z,14.58
2022-09-27T19:58:02.159Z,14.47
2022-09-27T20:00:34.314Z,13.96
2022-09-27T20:03:05.536Z,14.58
2022-09-27T20:05:35.454Z,14.75
2022-09-27T20:08:06.064Z,14.58
2022-09-27T20:10:37.314Z,14.49
2022-09-27T20:13:09.234Z,14.38
2022-09-27T20:15:39.435Z,14.54
2022-09-27T20:18:10.285Z,14.32
2022-09-27T20:20:42.664Z,14.38
2022-09-27T20:23:14.594Z,13.96
2022-09-27T20:25:45.170Z,14.20
2022-09-27T20:28:14.874Z,14.02
2022-09-27T20:30:56.951Z,14.32
2022-09-27T20:33:44.053Z,13.80
2022-09-27T20:36:15.007Z,14.12
2022-09-27T20:38:47.228Z,14.03
2022-09-27T20:41:18.508Z,13.93
2022-09-27T20:43:47.178Z,13.82
2022-09-27T20:46:17.062Z,13.08
2022-09-27T20:48:46.802Z,12.93
2022-09-27T20:51:15.293Z,13.00
2022-09-27T20:53:45.074Z,13.05
2022-09-27T20:56:18.481Z,12.87
2022-09-27T20:58:51.076Z,12.64
2022-09-27T21:01:20.602Z,12.43
2022-09-27T21:03:54.000Z,13.31
2022-09-27T21:06:25.413Z,12.76
2022-09-27T21:08:55.420Z,12.86
2022-09-27T21:11:23.592Z,13.03
2022-09-27T21:13:52.154Z,12.91
2022-09-27T21:16:22.201Z,13.20
2022-09-27T21:18:51.919Z,13.05
2022-09-27T21:21:21.262Z,13.43
2022-09-27T21:23:54.307Z,13.48
2022-09-27T21:26:23.331Z,13.02
2022-09-27T21:28:53.307Z,13.29
2022-09-27T21:31:23.487Z,13.03
2022-09-27T21:33:58.898Z,12.46
2022-09-27T21:36:31.419Z,12.72
2022-09-27T21:39:00.020Z,12.69
2022-09-27T21:41:29.222Z,12.54
2022-09-27T21:43:57.925Z,12.66
2022-09-27T21:46:28.574Z,12.76
2022-09-27T21:48:58.690Z,12.82
2022-09-27T21:51:30.433Z,12.92
2022-09-27T21:54:01.053Z,13.01
2022-09-27T21:56:33.909Z,13.08
2022-09-27T21:59:02.498Z,12.72
2022-09-27T22:01:32.289Z,12.52
2022-09-27T22:04:01.306Z,11.98
2022-09-27T22:06:34.221Z,12.17
2022-09-27T22:09:03.450Z,12.09
2022-09-27T22:11:33.290Z,12.13
2022-09-27T22:14:01.637Z,12.52
2022-09-27T22:16:32.695Z,12.40
2022-09-27T22:19:02.158Z,12.36
2022-09-27T22:21:32.039Z,12.24
2022-09-27T22:24:07.790Z,12.18
2022-09-27T22:26:38.164Z,12.49
2022-09-27T22:29:06.891Z,12.30
2022-09-27T22:31:35.586Z,12.59
2022-09-27T22:34:06.633Z,12.29
2022-09-27T22:36:35.287Z,12.50
2022-09-27T22:39:03.806Z,12.54
2022-09-27T22:41:32.343Z,12.63
2022-09-27T22:44:01.467Z,12.57
2022-09-27T22:46:29.696Z,12.71
2022-09-27T22:48:58.051Z,12.54
2022-09-27T22:51:26.370Z,12.63
2022-09-27T22:53:54.657Z,12.60
2022-09-27T22:56:22.925Z,12.45
2022-09-27T22:58:51.305Z,12.40
2022-09-27T23:01:23.835Z,12.84
2022-09-27T23:03:54.739Z,12.83
2022-09-27T23:06:23.246Z,12.77
2022-09-27T23:08:51.902Z,12.88
2022-09-27T23:11:22.224Z,12.99
2022-09-27T23:13:50.992Z,12.09
2022-09-27T23:16:20.955Z,12.28
2022-09-27T23:18:49.983Z,11.96
2022-09-27T23:21:19.335Z,12.00
2022-09-27T23:23:47.695Z,11.86
2022-09-27T23:26:16.478Z,11.18
2022-09-27T23:28:44.921Z,11.08
2022-09-27T23:31:14.824Z,10.95
2022-09-27T23:33:48.719Z,11.33
2022-09-27T23:36:21.269Z,10.99
2022-09-27T23:38:50.593Z,10.89
2022-09-27T23:41:19.002Z,11.06
2022-09-27T23:43:48.501Z,10.81
2022-09-27T23:46:17.151Z,11.00
2022-09-27T23:48:45.487Z,11.31
2022-09-27T23:51:13.731Z,11.18
2022-09-27T23:53:42.195Z,10.77
2022-09-27T23:56:15.374Z,10.35
2022-09-27T23:58:44.693Z,10.77
